Tallahassee, FL (32301)

8:37 PM EDT on April 23, 2017 (GMT -0400)
Hartsfield Elementary School WeatherSTEM | | Change Station

Elev 203 ft 30.43 °N, 84.26 °W | Updated 2 minutes ago

Overcast
Overcast
72.3 °F
Feels Like 72 °F
N
0.0
Wind Variable Wind from NW

Today
High -- | Low -- °F
--% Chance of Precip.
Yesterday
High -- | Low -- °F
Precip. -- in
Pressure 29.75 in
Visibility 10.0 miles
Clouds Few 1200 ft
Scattered Clouds 6000 ft
Mostly Cloudy 11000 ft
Mostly Cloudy 25000 ft
Heat Index 72 °F
Dew Point 67 °F
Humidity 83%
Rainfall 0.00 in
Snow Depth Not available.
7:00 AM 8:10 PM
Waning Crescent, 9% visible
METAR KTLH 232353Z 30003KT 10SM FEW012 SCT060 BKN110 BKN250 22/21 A2975 RMK AO2 RAB2258E21 SLPNO P0001 60001 T02170206 10289 20217 53004 $
Pressure 29.75 in
Visibility 10.0 miles
Clouds Few 1200 ft
Scattered Clouds 6000 ft
Mostly Cloudy 11000 ft
Mostly Cloudy 25000 ft
Heat Index 72 °F
Dew Point 67 °F
Humidity 83%
Rainfall 0.00 in
Snow Depth Not available.
7:00 AM 8:10 PM
Waning Crescent, 9% visible
METAR KTLH 232353Z 30003KT 10SM FEW012 SCT060 BKN110 BKN250 22/21 A2975 RMK AO2 RAB2258E21 SLPNO P0001 60001 T02170206 10289 20217 53004 $

Get Severe Weather Alerts

Thanks for signing up!

Be on the lookout for a verification email in your inbox.

You'll start receiving the daily forecast at 8 AM.

×

10-Day Weather Forecast

Almanac

Astronomy

Apr. 23, 2017 Rise Set
Actual Time
Civil Twilight
Nautical Twilight
Astronomical Twilight
Moon
Length of Visible Light
Length of Day
Tomorrow will be .
, % of the Moon is Illuminated

Today's Extremes

State Highs State Lows

Community

WunderPhotos

WunderBlog® & News

Nearby

Air Quality

  Air Quality AQ Index Pollutant
Not available.

Snow Depth

Station Depth Elevation

Earthquake Activity

City Distance Mag. Time & Date
Minimum magnitude displayed is 2.5.

Coastal Water Temperatures

Place Temperature

Stations

Nearby Weather Stations

Station Location Temp. Windchill Dew Point Humidity Wind Precip. Elev Updated Type
                   

Watches & Warnings

There are currently no watches in effect.